sensor_id;sensor_type;location;lat;lon;timestamp;temperature;humidity
64396;DHT22;50717;53.360;6.290;2023-07-16T00:00:50;15.70;99.90
64396;DHT22;50717;53.360;6.290;2023-07-16T00:03:16;15.50;99.90
64396;DHT22;50717;53.360;6.290;2023-07-16T00:05:42;15.50;99.90
64396;DHT22;50717;53.360;6.290;2023-07-16T00:08:07;15.70;99.90
64396;DHT22;50717;53.360;6.290;2023-07-16T00:10:37;15.60;99.90
64396;DHT22;50717;53.360;6.290;2023-07-16T00:13:03;15.60;99.90
64396;DHT22;50717;53.360;6.290;2023-07-16T00:15:29;15.70;99.90
64396;DHT22;50717;53.360;6.290;2023-07-16T00:17:55;15.70;99.90
64396;DHT22;50717;53.360;6.290;2023-07-16T00:20:21;15.40;99.90
64396;DHT22;50717;53.360;6.290;2023-07-16T00:22:50;15.70;99.90
64396;DHT22;50717;53.360;6.290;2023-07-16T00:25:15;15.80;99.90
64396;DHT22;50717;53.360;6.290;2023-07-16T00:27:41;15.40;99.90
64396;DHT22;50717;53.360;6.290;2023-07-16T00:30:07;15.40;99.90
64396;DHT22;50717;53.360;6.290;2023-07-16T00:32:33;15.60;99.90
64396;DHT22;50717;53.360;6.290;2023-07-16T00:34:59;15.40;99.90
64396;DHT22;50717;53.360;6.290;2023-07-16T00:37:24;15.30;99.90
64396;DHT22;50717;53.360;6.290;2023-07-16T00:39:50;15.10;99.90
64396;DHT22;50717;53.360;6.290;2023-07-16T00:42:16;15.10;99.90
64396;DHT22;50717;53.360;6.290;2023-07-16T00:44:42;14.90;99.90
64396;DHT22;50717;53.360;6.290;2023-07-16T00:47:08;15.10;99.90
64396;DHT22;50717;53.360;6.290;2023-07-16T00:49:34;14.90;99.90
64396;DHT22;50717;53.360;6.290;2023-07-16T00:52:00;14.80;99.90
64396;DHT22;50717;53.360;6.290;2023-07-16T00:54:26;15.10;99.90
64396;DHT22;50717;53.360;6.290;2023-07-16T00:56:52;14.80;99.90
64396;DHT22;50717;53.360;6.290;2023-07-16T00:59:17;14.60;99.90
64396;DHT22;50717;53.360;6.290;2023-07-16T01:01:43;15.10;99.90
64396;DHT22;50717;53.360;6.290;2023-07-16T01:04:09;14.50;99.90
64396;DHT22;50717;53.360;6.290;2023-07-16T01:06:40;14.70;99.90
64396;DHT22;50717;53.360;6.290;2023-07-16T01:09:08;14.90;99.90
64396;DHT22;50717;53.360;6.290;2023-07-16T01:11:36;14.60;99.90
64396;DHT22;50717;53.360;6.290;2023-07-16T01:14:03;14.80;99.90
64396;DHT22;50717;53.360;6.290;2023-07-16T01:16:29;14.60;99.90
64396;DHT22;50717;53.360;6.290;2023-07-16T01:18:55;15.10;99.90
64396;DHT22;50717;53.360;6.290;2023-07-16T01:21:23;14.80;99.90
64396;DHT22;50717;53.360;6.290;2023-07-16T01:29:28;14.80;99.90
64396;DHT22;50717;53.360;6.290;2023-07-16T01:31:56;14.60;99.90
64396;DHT22;50717;53.360;6.290;2023-07-16T01:34:23;14.70;99.90
64396;DHT22;50717;53.360;6.290;2023-07-16T01:36:50;15.30;99.90
64396;DHT22;50717;53.360;6.290;2023-07-16T01:39:16;14.80;99.90
64396;DHT22;50717;53.360;6.290;2023-07-16T01:41:42;14.90;99.90
64396;DHT22;50717;53.360;6.290;2023-07-16T01:44:07;15.10;99.90
64396;DHT22;50717;53.360;6.290;2023-07-16T01:46:33;15.00;99.90
64396;DHT22;50717;53.360;6.290;2023-07-16T01:48:59;15.30;99.90
64396;DHT22;50717;53.360;6.290;2023-07-16T01:51:25;15.30;99.90
64396;DHT22;50717;53.360;6.290;2023-07-16T01:53:50;15.00;99.90
64396;DHT22;50717;53.360;6.290;2023-07-16T01:56:16;15.20;99.90
64396;DHT22;50717;53.360;6.290;2023-07-16T01:58:42;15.30;99.90
64396;DHT22;50717;53.360;6.290;2023-07-16T02:01:08;15.10;99.90
64396;DHT22;50717;53.360;6.290;2023-07-16T02:03:33;15.10;99.90
64396;DHT22;50717;53.360;6.290;2023-07-16T02:05:59;15.10;99.90
64396;DHT22;50717;53.360;6.290;2023-07-16T02:08:25;15.10;99.90
64396;DHT22;50717;53.360;6.290;2023-07-16T02:10:50;15.00;99.90
64396;DHT22;50717;53.360;6.290;2023-07-16T02:13:16;15.30;99.90
64396;DHT22;50717;53.360;6.290;2023-07-16T02:15:42;17.10;99.90
64396;DHT22;50717;53.360;6.290;2023-07-16T02:18:08;15.00;99.90
64396;DHT22;50717;53.360;6.290;2023-07-16T02:20:33;15.00;99.90
64396;DHT22;50717;53.360;6.290;2023-07-16T02:22:59;15.00;99.90
64396;DHT22;50717;53.360;6.290;2023-07-16T02:25:25;15.40;99.90
64396;DHT22;50717;53.360;6.290;2023-07-16T02:27:51;15.10;99.90
64396;DHT22;50717;53.360;6.290;2023-07-16T02:30:16;15.30;99.90
64396;DHT22;50717;53.360;6.290;2023-07-16T02:32:42;15.10;99.90
64396;DHT22;50717;53.360;6.290;2023-07-16T02:35:08;15.00;99.90
64396;DHT22;50717;53.360;6.290;2023-07-16T02:37:34;15.20;99.90
64396;DHT22;50717;53.360;6.290;2023-07-16T02:39:59;15.20;99.90
64396;DHT22;50717;53.360;6.290;2023-07-16T02:42:25;14.90;99.90
64396;DHT22;50717;53.360;6.290;2023-07-16T02:44:51;15.50;99.90
64396;DHT22;50717;53.360;6.290;2023-07-16T02:47:17;15.30;99.90
64396;DHT22;50717;53.360;6.290;2023-07-16T02:49:43;15.40;99.90
64396;DHT22;50717;53.360;6.290;2023-07-16T02:52:08;15.30;99.90
64396;DHT22;50717;53.360;6.290;2023-07-16T02:54:37;15.20;99.90
64396;DHT22;50717;53.360;6.290;2023-07-16T02:57:03;15.20;99.90
64396;DHT22;50717;53.360;6.290;2023-07-16T02:59:29;15.10;99.90
64396;DHT22;50717;53.360;6.290;2023-07-16T03:01:55;15.20;99.90
64396;DHT22;50717;53.360;6.290;2023-07-16T03:04:20;15.40;99.90
64396;DHT22;50717;53.360;6.290;2023-07-16T03:06:46;15.30;99.90
64396;DHT22;50717;53.360;6.290;2023-07-16T03:09:12;15.40;99.90
64396;DHT22;50717;53.360;6.290;2023-07-16T03:11:37;15.20;99.90
64396;DHT22;50717;53.360;6.290;2023-07-16T03:14:03;15.40;99.90
64396;DHT22;50717;53.360;6.290;2023-07-16T03:16:29;15.20;99.90
64396;DHT22;50717;53.360;6.290;2023-07-16T03:18:54;15.10;99.90
64396;DHT22;50717;53.360;6.290;2023-07-16T03:21:20;15.20;99.90
64396;DHT22;50717;53.360;6.290;2023-07-16T03:23:46;14.90;99.90
64396;DHT22;50717;53.360;6.290;2023-07-16T03:26:11;14.80;99.90
64396;DHT22;50717;53.360;6.290;2023-07-16T03:28:37;15.00;99.90
64396;DHT22;50717;53.360;6.290;2023-07-16T03:31:02;15.20;99.90
64396;DHT22;50717;53.360;6.290;2023-07-16T03:33:28;14.70;99.90
64396;DHT22;50717;53.360;6.290;2023-07-16T03:35:54;15.10;99.90
64396;DHT22;50717;53.360;6.290;2023-07-16T03:38:19;15.00;99.90
64396;DHT22;50717;53.360;6.290;2023-07-16T03:40:49;14.90;99.90
64396;DHT22;50717;53.360;6.290;2023-07-16T03:43:16;15.00;99.90
64396;DHT22;50717;53.360;6.290;2023-07-16T03:45:43;15.00;99.90
64396;DHT22;50717;53.360;6.290;2023-07-16T03:48:08;14.80;99.90
64396;DHT22;50717;53.360;6.290;2023-07-16T03:50:35;14.90;99.90
64396;DHT22;50717;53.360;6.290;2023-07-16T03:53:01;15.00;99.90
64396;DHT22;50717;53.360;6.290;2023-07-16T03:55:29;14.90;99.90
64396;DHT22;50717;53.360;6.290;2023-07-16T03:57:55;15.00;99.90
64396;DHT22;50717;53.360;6.290;2023-07-16T04:00:20;15.20;99.90
64396;DHT22;50717;53.360;6.290;2023-07-16T04:02:46;15.20;99.90
64396;DHT22;50717;53.360;6.290;2023-07-16T04:05:12;15.40;99.90
64396;DHT22;50717;53.360;6.290;2023-07-16T04:07:38;15.10;99.90
64396;DHT22;50717;53.360;6.290;2023-07-16T04:10:04;15.30;99.90
64396;DHT22;50717;53.360;6.290;2023-07-16T04:12:29;15.30;99.90
64396;DHT22;50717;53.360;6.290;2023-07-16T04:14:57;15.30;99.90
64396;DHT22;50717;53.360;6.290;2023-07-16T04:17:23;15.20;99.90
64396;DHT22;50717;53.360;6.290;2023-07-16T04:19:49;15.10;99.90
64396;DHT22;50717;53.360;6.290;2023-07-16T04:22:15;15.60;99.90
64396;DHT22;50717;53.360;6.290;2023-07-16T04:24:41;15.70;99.90
64396;DHT22;50717;53.360;6.290;2023-07-16T04:27:07;15.40;99.90
64396;DHT22;50717;53.360;6.290;2023-07-16T04:29:32;15.60;99.90
64396;DHT22;50717;53.360;6.290;2023-07-16T04:31:58;15.50;99.90
64396;DHT22;50717;53.360;6.290;2023-07-16T04:34:24;15.50;99.90
64396;DHT22;50717;53.360;6.290;2023-07-16T04:36:49;15.50;99.90
64396;DHT22;50717;53.360;6.290;2023-07-16T04:39:15;15.70;99.90
64396;DHT22;50717;53.360;6.290;2023-07-16T04:41:41;15.50;99.90
64396;DHT22;50717;53.360;6.290;2023-07-16T04:44:06;15.70;99.90
64396;DHT22;50717;53.360;6.290;2023-07-16T04:46:32;15.80;99.90
64396;DHT22;50717;53.360;6.290;2023-07-16T04:48:58;15.80;99.90
64396;DHT22;50717;53.360;6.290;2023-07-16T04:51:23;15.90;99.90
64396;DHT22;50717;53.360;6.290;2023-07-16T04:53:49;16.00;99.90
64396;DHT22;50717;53.360;6.290;2023-07-16T04:56:15;16.00;99.90
64396;DHT22;50717;53.360;6.290;2023-07-16T04:58:42;16.30;99.90
64396;DHT22;50717;53.360;6.290;2023-07-16T05:01:08;16.40;99.90
64396;DHT22;50717;53.360;6.290;2023-07-16T05:03:34;16.20;99.90
64396;DHT22;50717;53.360;6.290;2023-07-16T05:05:59;16.60;99.90
64396;DHT22;50717;53.360;6.290;2023-07-16T05:08:26;16.50;99.90
64396;DHT22;50717;53.360;6.290;2023-07-16T05:10:51;16.30;99.90
64396;DHT22;50717;53.360;6.290;2023-07-16T05:13:17;15.90;99.90
64396;DHT22;50717;53.360;6.290;2023-07-16T05:15:43;16.50;99.90
64396;DHT22;50717;53.360;6.290;2023-07-16T05:18:09;16.60;99.90
64396;DHT22;50717;53.360;6.290;2023-07-16T05:20:35;16.10;99.90
64396;DHT22;50717;53.360;6.290;2023-07-16T05:23:00;16.40;99.90
64396;DHT22;50717;53.360;6.290;2023-07-16T05:25:26;16.60;99.90
64396;DHT22;50717;53.360;6.290;2023-07-16T05:27:52;16.10;99.90
64396;DHT22;50717;53.360;6.290;2023-07-16T05:30:17;16.80;99.90
64396;DHT22;50717;53.360;6.290;2023-07-16T05:32:43;16.70;99.90
64396;DHT22;50717;53.360;6.290;2023-07-16T05:35:11;16.90;99.90
64396;DHT22;50717;53.360;6.290;2023-07-16T05:37:37;16.70;99.90
64396;DHT22;50717;53.360;6.290;2023-07-16T05:40:03;16.90;99.90
64396;DHT22;50717;53.360;6.290;2023-07-16T05:42:29;16.70;99.90
64396;DHT22;50717;53.360;6.290;2023-07-16T05:44:54;16.90;99.90
64396;DHT22;50717;53.360;6.290;2023-07-16T05:47:20;16.50;99.90
64396;DHT22;50717;53.360;6.290;2023-07-16T05:49:46;16.60;99.90
64396;DHT22;50717;53.360;6.290;2023-07-16T05:52:12;16.50;99.90
64396;DHT22;50717;53.360;6.290;2023-07-16T05:54:37;16.20;99.90
64396;DHT22;50717;53.360;6.290;2023-07-16T05:57:03;16.40;99.90
64396;DHT22;50717;53.360;6.290;2023-07-16T05:59:29;16.50;99.90
64396;DHT22;50717;53.360;6.290;2023-07-16T06:01:54;16.40;99.90
64396;DHT22;50717;53.360;6.290;2023-07-16T06:04:23;16.10;99.90
64396;DHT22;50717;53.360;6.290;2023-07-16T06:06:48;16.40;99.90
64396;DHT22;50717;53.360;6.290;2023-07-16T06:09:14;16.50;99.90
64396;DHT22;50717;53.360;6.290;2023-07-16T06:11:40;16.70;99.90
64396;DHT22;50717;53.360;6.290;2023-07-16T06:14:06;16.70;99.90
64396;DHT22;50717;53.360;6.290;2023-07-16T06:16:31;16.70;99.90
64396;DHT22;50717;53.360;6.290;2023-07-16T06:18:57;17.00;99.90
64396;DHT22;50717;53.360;6.290;2023-07-16T06:21:22;17.40;99.90
64396;DHT22;50717;53.360;6.290;2023-07-16T06:23:48;17.20;99.90
64396;DHT22;50717;53.360;6.290;2023-07-16T06:26:14;17.10;99.90
64396;DHT22;50717;53.360;6.290;2023-07-16T06:28:39;17.20;99.90
64396;DHT22;50717;53.360;6.290;2023-07-16T06:31:05;17.40;99.90
64396;DHT22;50717;53.360;6.290;2023-07-16T06:33:31;17.50;99.90
64396;DHT22;50717;53.360;6.290;2023-07-16T06:35:56;17.90;99.90
64396;DHT22;50717;53.360;6.290;2023-07-16T06:38:22;17.30;99.90
64396;DHT22;50717;53.360;6.290;2023-07-16T06:40:48;17.80;99.90
64396;DHT22;50717;53.360;6.290;2023-07-16T06:43:14;17.60;99.90
64396;DHT22;50717;53.360;6.290;2023-07-16T06:45:40;17.70;99.90
64396;DHT22;50717;53.360;6.290;2023-07-16T06:48:06;18.10;99.90
64396;DHT22;50717;53.360;6.290;2023-07-16T06:50:31;18.00;99.90
64396;DHT22;50717;53.360;6.290;2023-07-16T06:52:57;18.10;99.90
64396;DHT22;50717;53.360;6.290;2023-07-16T06:55:23;18.10;99.90
64396;DHT22;50717;53.360;6.290;2023-07-16T06:57:48;18.40;99.90
64396;DHT22;50717;53.360;6.290;2023-07-16T07:00:14;18.80;99.90
64396;DHT22;50717;53.360;6.290;2023-07-16T07:02:40;18.60;99.90
64396;DHT22;50717;53.360;6.290;2023-07-16T07:05:06;18.60;99.90
64396;DHT22;50717;53.360;6.290;2023-07-16T07:07:32;18.20;99.90
64396;DHT22;50717;53.360;6.290;2023-07-16T07:09:58;18.50;99.90
64396;DHT22;50717;53.360;6.290;2023-07-16T07:12:23;18.40;99.90
64396;DHT22;50717;53.360;6.290;2023-07-16T07:14:49;18.20;99.90
64396;DHT22;50717;53.360;6.290;2023-07-16T07:17:15;18.60;99.90
64396;DHT22;50717;53.360;6.290;2023-07-16T07:19:42;18.10;99.90
64396;DHT22;50717;53.360;6.290;2023-07-16T07:22:08;17.70;99.90
64396;DHT22;50717;53.360;6.290;2023-07-16T07:24:33;17.60;99.90
64396;DHT22;50717;53.360;6.290;2023-07-16T07:26:59;17.50;99.90
64396;DHT22;50717;53.360;6.290;2023-07-16T07:29:25;17.40;99.90
64396;DHT22;50717;53.360;6.290;2023-07-16T07:31:51;17.40;99.90
64396;DHT22;50717;53.360;6.290;2023-07-16T07:34:17;17.10;99.90
64396;DHT22;50717;53.360;6.290;2023-07-16T07:36:43;17.00;99.90
64396;DHT22;50717;53.360;6.290;2023-07-16T07:39:08;16.80;99.90
64396;DHT22;50717;53.360;6.290;2023-07-16T07:41:34;17.40;99.90
64396;DHT22;50717;53.360;6.290;2023-07-16T07:44:00;17.50;99.90
64396;DHT22;50717;53.360;6.290;2023-07-16T07:46:25;17.20;99.90
64396;DHT22;50717;53.360;6.290;2023-07-16T07:48:51;17.50;99.90
64396;DHT22;50717;53.360;6.290;2023-07-16T07:51:17;17.50;99.90
64396;DHT22;50717;53.360;6.290;2023-07-16T07:53:42;17.40;99.90
64396;DHT22;50717;53.360;6.290;2023-07-16T07:56:08;17.40;99.90
64396;DHT22;50717;53.360;6.290;2023-07-16T07:58:33;17.50;99.90
64396;DHT22;50717;53.360;6.290;2023-07-16T08:01:08;17.30;99.90
64396;DHT22;50717;53.360;6.290;2023-07-16T08:03:35;17.30;99.90
64396;DHT22;50717;53.360;6.290;2023-07-16T08:06:01;17.50;99.90
64396;DHT22;50717;53.360;6.290;2023-07-16T08:08:26;17.40;99.90
64396;DHT22;50717;53.360;6.290;2023-07-16T08:10:53;17.50;99.90
64396;DHT22;50717;53.360;6.290;2023-07-16T08:13:19;17.70;99.90
64396;DHT22;50717;53.360;6.290;2023-07-16T08:15:45;18.00;99.90
64396;DHT22;50717;53.360;6.290;2023-07-16T08:18:11;17.90;99.90
64396;DHT22;50717;53.360;6.290;2023-07-16T08:20:37;18.10;99.90
64396;DHT22;50717;53.360;6.290;2023-07-16T08:23:02;18.40;99.90
64396;DHT22;50717;53.360;6.290;2023-07-16T08:25:28;18.50;99.90
64396;DHT22;50717;53.360;6.290;2023-07-16T08:27:54;19.10;99.90
64396;DHT22;50717;53.360;6.290;2023-07-16T08:30:20;19.00;99.90
64396;DHT22;50717;53.360;6.290;2023-07-16T08:32:46;18.60;99.90
64396;DHT22;50717;53.360;6.290;2023-07-16T08:35:12;18.80;99.90
64396;DHT22;50717;53.360;6.290;2023-07-16T08:37:42;19.20;99.90
64396;DHT22;50717;53.360;6.290;2023-07-16T08:40:08;18.90;99.90
64396;DHT22;50717;53.360;6.290;2023-07-16T08:42:37;19.00;99.90
64396;DHT22;50717;53.360;6.290;2023-07-16T08:45:06;19.20;99.90
64396;DHT22;50717;53.360;6.290;2023-07-16T08:47:33;18.80;99.90
64396;DHT22;50717;53.360;6.290;2023-07-16T08:50:01;19.50;99.90
64396;DHT22;50717;53.360;6.290;2023-07-16T08:52:27;19.10;99.90
64396;DHT22;50717;53.360;6.290;2023-07-16T08:54:54;19.30;99.90
64396;DHT22;50717;53.360;6.290;2023-07-16T08:57:20;19.30;99.90
64396;DHT22;50717;53.360;6.290;2023-07-16T08:59:50;19.30;99.90
64396;DHT22;50717;53.360;6.290;2023-07-16T09:02:20;19.30;99.90
64396;DHT22;50717;53.360;6.290;2023-07-16T09:04:49;19.50;99.90
64396;DHT22;50717;53.360;6.290;2023-07-16T09:07:18;18.80;99.90
64396;DHT22;50717;53.360;6.290;2023-07-16T09:09:55;19.00;99.90
64396;DHT22;50717;53.360;6.290;2023-07-16T09:12:20;19.20;99.90
64396;DHT22;50717;53.360;6.290;2023-07-16T09:14:48;19.20;99.90
64396;DHT22;50717;53.360;6.290;2023-07-16T09:17:22;19.30;99.90
64396;DHT22;50717;53.360;6.290;2023-07-16T09:19:50;19.40;99.90
64396;DHT22;50717;53.360;6.290;2023-07-16T09:22:20;19.10;99.90
64396;DHT22;50717;53.360;6.290;2023-07-16T09:24:46;19.60;99.90
64396;DHT22;50717;53.360;6.290;2023-07-16T09:27:13;19.50;99.90
64396;DHT22;50717;53.360;6.290;2023-07-16T09:29:39;19.50;99.90
64396;DHT22;50717;53.360;6.290;2023-07-16T09:32:05;19.70;99.90
64396;DHT22;50717;53.360;6.290;2023-07-16T09:34:32;19.70;99.90
64396;DHT22;50717;53.360;6.290;2023-07-16T09:36:58;20.30;99.90
64396;DHT22;50717;53.360;6.290;2023-07-16T09:39:26;20.20;99.90
64396;DHT22;50717;53.360;6.290;2023-07-16T09:41:52;20.00;99.90
64396;DHT22;50717;53.360;6.290;2023-07-16T09:44:18;20.20;99.90
64396;DHT22;50717;53.360;6.290;2023-07-16T09:46:46;20.30;99.90
64396;DHT22;50717;53.360;6.290;2023-07-16T09:49:14;20.40;99.90
64396;DHT22;50717;53.360;6.290;2023-07-16T09:51:40;20.40;99.90
64396;DHT22;50717;53.360;6.290;2023-07-16T09:54:08;20.20;99.90
64396;DHT22;50717;53.360;6.290;2023-07-16T09:56:44;20.10;99.90
64396;DHT22;50717;53.360;6.290;2023-07-16T09:59:16;20.40;99.90
64396;DHT22;50717;53.360;6.290;2023-07-16T10:01:42;21.00;99.90
64396;DHT22;50717;53.360;6.290;2023-07-16T10:04:16;18.40;99.90
64396;DHT22;50717;53.360;6.290;2023-07-16T10:06:59;20.80;99.90
64396;DHT22;50717;53.360;6.290;2023-07-16T10:09:54;20.50;99.90
64396;DHT22;50717;53.360;6.290;2023-07-16T10:12:22;20.20;99.90
64396;DHT22;50717;53.360;6.290;2023-07-16T10:14:50;20.00;99.90
64396;DHT22;50717;53.360;6.290;2023-07-16T10:17:26;20.40;99.90
64396;DHT22;50717;53.360;6.290;2023-07-16T10:20:00;20.50;99.90
64396;DHT22;50717;53.360;6.290;2023-07-16T10:25:27;20.30;99.90
64396;DHT22;50717;53.360;6.290;2023-07-16T10:27:53;20.50;99.90
64396;DHT22;50717;53.360;6.290;2023-07-16T10:30:20;20.60;99.90
64396;DHT22;50717;53.360;6.290;2023-07-16T10:32:46;21.00;99.90
64396;DHT22;50717;53.360;6.290;2023-07-16T10:35:12;20.70;99.90
64396;DHT22;50717;53.360;6.290;2023-07-16T10:37:39;20.50;99.90
64396;DHT22;50717;53.360;6.290;2023-07-16T10:40:10;20.10;99.90
64396;DHT22;50717;53.360;6.290;2023-07-16T10:42:36;19.70;99.90
64396;DHT22;50717;53.360;6.290;2023-07-16T10:45:03;19.60;99.90
64396;DHT22;50717;53.360;6.290;2023-07-16T10:47:40;19.40;99.90
64396;DHT22;50717;53.360;6.290;2023-07-16T10:50:09;19.60;99.90
64396;DHT22;50717;53.360;6.290;2023-07-16T10:52:36;20.10;99.90
64396;DHT22;50717;53.360;6.290;2023-07-16T10:55:03;20.70;99.90
64396;DHT22;50717;53.360;6.290;2023-07-16T10:57:29;20.80;99.90
64396;DHT22;50717;53.360;6.290;2023-07-16T10:59:57;20.40;99.90
64396;DHT22;50717;53.360;6.290;2023-07-16T11:02:24;20.30;99.90
64396;DHT22;50717;53.360;6.290;2023-07-16T11:04:52;19.70;99.90
64396;DHT22;50717;53.360;6.290;2023-07-16T11:07:22;19.60;99.90
64396;DHT22;50717;53.360;6.290;2023-07-16T11:09:54;19.60;99.90
64396;DHT22;50717;53.360;6.290;2023-07-16T11:12:24;19.90;99.90
64396;DHT22;50717;53.360;6.290;2023-07-16T11:14:51;19.50;99.90
64396;DHT22;50717;53.360;6.290;2023-07-16T11:17:19;19.80;99.90
64396;DHT22;50717;53.360;6.290;2023-07-16T11:19:49;19.70;99.90
64396;DHT22;50717;53.360;6.290;2023-07-16T11:22:15;19.90;99.90
64396;DHT22;50717;53.360;6.290;2023-07-16T11:24:49;19.80;99.90
64396;DHT22;50717;53.360;6.290;2023-07-16T11:32:33;20.20;99.90
64396;DHT22;50717;53.360;6.290;2023-07-16T11:35:01;20.70;99.90
64396;DHT22;50717;53.360;6.290;2023-07-16T11:37:29;21.10;99.90
64396;DHT22;50717;53.360;6.290;2023-07-16T11:40:03;20.70;99.90
64396;DHT22;50717;53.360;6.290;2023-07-16T11:42:36;20.90;99.90
64396;DHT22;50717;53.360;6.290;2023-07-16T11:45:03;20.60;99.90
64396;DHT22;50717;53.360;6.290;2023-07-16T11:47:30;21.00;99.90
64396;DHT22;50717;53.360;6.290;2023-07-16T11:49:56;20.80;99.90
64396;DHT22;50717;53.360;6.290;2023-07-16T11:52:27;20.50;99.90
64396;DHT22;50717;53.360;6.290;2023-07-16T11:54:57;20.20;99.90
64396;DHT22;50717;53.360;6.290;2023-07-16T11:57:25;19.90;99.90
64396;DHT22;50717;53.360;6.290;2023-07-16T11:59:51;20.60;99.90
64396;DHT22;50717;53.360;6.290;2023-07-16T12:02:16;20.80;99.90
64396;DHT22;50717;53.360;6.290;2023-07-16T12:04:42;21.20;99.90
64396;DHT22;50717;53.360;6.290;2023-07-16T12:07:08;20.60;99.90
64396;DHT22;50717;53.360;6.290;2023-07-16T12:09:34;20.60;99.90
64396;DHT22;50717;53.360;6.290;2023-07-16T12:12:00;20.10;99.90
64396;DHT22;50717;53.360;6.290;2023-07-16T12:14:26;20.10;99.90
64396;DHT22;50717;53.360;6.290;2023-07-16T12:16:52;19.80;99.90
64396;DHT22;50717;53.360;6.290;2023-07-16T12:19:18;19.90;99.90
64396;DHT22;50717;53.360;6.290;2023-07-16T12:21:44;19.60;99.90
64396;DHT22;50717;53.360;6.290;2023-07-16T12:24:11;20.40;99.90
64396;DHT22;50717;53.360;6.290;2023-07-16T12:26:37;20.70;99.90
64396;DHT22;50717;53.360;6.290;2023-07-16T12:29:03;21.20;99.90
64396;DHT22;50717;53.360;6.290;2023-07-16T12:31:30;20.90;99.90
64396;DHT22;50717;53.360;6.290;2023-07-16T12:34:00;20.60;99.90
64396;DHT22;50717;53.360;6.290;2023-07-16T12:36:27;20.70;99.90
64396;DHT22;50717;53.360;6.290;2023-07-16T12:38:53;20.50;99.90
64396;DHT22;50717;53.360;6.290;2023-07-16T12:41:19;21.60;99.90
64396;DHT22;50717;53.360;6.290;2023-07-16T12:43:46;20.00;99.90
64396;DHT22;50717;53.360;6.290;2023-07-16T12:46:12;19.60;99.90
64396;DHT22;50717;53.360;6.290;2023-07-16T12:48:37;19.20;99.90
64396;DHT22;50717;53.360;6.290;2023-07-16T12:51:03;19.00;99.90
64396;DHT22;50717;53.360;6.290;2023-07-16T12:53:29;18.40;99.90
64396;DHT22;50717;53.360;6.290;2023-07-16T12:55:54;18.10;99.90
64396;DHT22;50717;53.360;6.290;2023-07-16T12:58:20;17.80;99.90
64396;DHT22;50717;53.360;6.290;2023-07-16T13:00:46;18.10;99.90
64396;DHT22;50717;53.360;6.290;2023-07-16T13:03:12;18.80;99.90
64396;DHT22;50717;53.360;6.290;2023-07-16T13:05:43;19.00;99.90
64396;DHT22;50717;53.360;6.290;2023-07-16T13:08:09;19.50;99.90
64396;DHT22;50717;53.360;6.290;2023-07-16T13:10:35;19.70;99.90
64396;DHT22;50717;53.360;6.290;2023-07-16T13:13:01;20.00;99.90
64396;DHT22;50717;53.360;6.290;2023-07-16T13:15:29;20.50;99.90
64396;DHT22;50717;53.360;6.290;2023-07-16T13:17:55;20.50;99.90
64396;DHT22;50717;53.360;6.290;2023-07-16T13:20:21;20.20;99.90
64396;DHT22;50717;53.360;6.290;2023-07-16T13:22:48;20.50;99.90
64396;DHT22;50717;53.360;6.290;2023-07-16T13:25:14;20.80;99.90
64396;DHT22;50717;53.360;6.290;2023-07-16T13:27:40;20.90;99.90
64396;DHT22;50717;53.360;6.290;2023-07-16T13:30:06;20.70;99.90
64396;DHT22;50717;53.360;6.290;2023-07-16T13:32:32;20.70;99.90
64396;DHT22;50717;53.360;6.290;2023-07-16T13:34:58;20.50;99.90
64396;DHT22;50717;53.360;6.290;2023-07-16T13:37:23;20.30;99.90
64396;DHT22;50717;53.360;6.290;2023-07-16T13:39:49;20.30;99.90
64396;DHT22;50717;53.360;6.290;2023-07-16T13:42:15;20.40;99.90
64396;DHT22;50717;53.360;6.290;2023-07-16T13:44:40;20.30;99.90
64396;DHT22;50717;53.360;6.290;2023-07-16T13:47:06;20.20;99.90
64396;DHT22;50717;53.360;6.290;2023-07-16T13:49:32;19.90;99.90
64396;DHT22;50717;53.360;6.290;2023-07-16T13:51:57;19.90;99.90
64396;DHT22;50717;53.360;6.290;2023-07-16T13:54:23;20.20;99.90
64396;DHT22;50717;53.360;6.290;2023-07-16T13:56:49;20.50;99.90
64396;DHT22;50717;53.360;6.290;2023-07-16T13:59:15;20.70;99.90
64396;DHT22;50717;53.360;6.290;2023-07-16T14:01:41;20.50;99.90
64396;DHT22;50717;53.360;6.290;2023-07-16T14:04:07;20.70;99.90
64396;DHT22;50717;53.360;6.290;2023-07-16T14:06:33;20.20;99.90
64396;DHT22;50717;53.360;6.290;2023-07-16T14:08:59;20.30;99.90
64396;DHT22;50717;53.360;6.290;2023-07-16T14:11:25;20.20;99.90
64396;DHT22;50717;53.360;6.290;2023-07-16T14:13:52;19.90;99.90
64396;DHT22;50717;53.360;6.290;2023-07-16T14:16:19;20.40;99.90
64396;DHT22;50717;53.360;6.290;2023-07-16T14:18:45;20.80;99.90
64396;DHT22;50717;53.360;6.290;2023-07-16T14:21:11;21.00;99.90
64396;DHT22;50717;53.360;6.290;2023-07-16T14:23:36;20.50;99.90
64396;DHT22;50717;53.360;6.290;2023-07-16T14:26:02;20.40;99.90
64396;DHT22;50717;53.360;6.290;2023-07-16T14:28:28;20.00;99.90
64396;DHT22;50717;53.360;6.290;2023-07-16T14:30:54;19.80;99.90
64396;DHT22;50717;53.360;6.290;2023-07-16T14:33:20;19.70;99.90
64396;DHT22;50717;53.360;6.290;2023-07-16T14:35:46;20.00;99.90
64396;DHT22;50717;53.360;6.290;2023-07-16T14:38:12;19.90;99.90
64396;DHT22;50717;53.360;6.290;2023-07-16T14:40:38;20.30;99.90
64396;DHT22;50717;53.360;6.290;2023-07-16T14:43:06;20.60;99.90
64396;DHT22;50717;53.360;6.290;2023-07-16T14:45:33;21.10;99.90
64396;DHT22;50717;53.360;6.290;2023-07-16T14:47:59;21.40;99.90
64396;DHT22;50717;53.360;6.290;2023-07-16T14:50:24;21.40;99.90
64396;DHT22;50717;53.360;6.290;2023-07-16T14:52:50;21.60;99.90
64396;DHT22;50717;53.360;6.290;2023-07-16T14:55:15;21.50;99.90
64396;DHT22;50717;53.360;6.290;2023-07-16T14:57:41;21.70;99.90
64396;DHT22;50717;53.360;6.290;2023-07-16T15:00:07;21.20;99.90
64396;DHT22;50717;53.360;6.290;2023-07-16T15:02:37;21.30;99.90
64396;DHT22;50717;53.360;6.290;2023-07-16T15:05:04;21.90;99.90
64396;DHT22;50717;53.360;6.290;2023-07-16T15:07:32;22.10;99.90
64396;DHT22;50717;53.360;6.290;2023-07-16T15:10:00;21.70;99.90
64396;DHT22;50717;53.360;6.290;2023-07-16T15:12:26;21.30;99.90
64396;DHT22;50717;53.360;6.290;2023-07-16T15:14:52;21.30;99.90
64396;DHT22;50717;53.360;6.290;2023-07-16T15:17:18;21.60;99.90
64396;DHT22;50717;53.360;6.290;2023-07-16T15:19:44;21.50;99.90
64396;DHT22;50717;53.360;6.290;2023-07-16T15:22:09;21.40;99.90
64396;DHT22;50717;53.360;6.290;2023-07-16T15:24:35;21.60;99.90
64396;DHT22;50717;53.360;6.290;2023-07-16T15:27:01;21.20;99.90
64396;DHT22;50717;53.360;6.290;2023-07-16T15:29:29;21.40;99.90
64396;DHT22;50717;53.360;6.290;2023-07-16T15:31:54;21.10;99.90
64396;DHT22;50717;53.360;6.290;2023-07-16T15:34:20;20.90;99.90
64396;DHT22;50717;53.360;6.290;2023-07-16T15:36:46;21.50;99.90
64396;DHT22;50717;53.360;6.290;2023-07-16T15:39:11;21.80;99.90